TAF KAHN
AMD KAHN 090856Z 0909/1006 06004KT 2SM BR SCT003 TEMPO 0909/0913 1/2SM FG OVC002 FM091300 05005KT 4SM BR SCT005 FM091500 07005KT P6SM SCT250 FM092200 11005KT P6SM BKN250 FM100100 13006KT P6SM SCT025 BKN040=
METAR KAHN
WC KAHN
WS KAHN
WV KAHN